BAW8DS KLAX-EGLL
Flight info
| Callsign | BAW8DS |
|---|---|
| Flight time | N/A |
| Altitude | 35000 |
| Route | OSHNN1 BEALE Q842 WINEN DCT MLF DCT BOY/N0481F370 DCT LSCOM DCT KIXCO DCT BOWIS DCT GOVAB DCT DEPMI DCT SEDIB DCT AXENO DCT YTL DCT YPO DCT KEMSA DCT 59N070W/N0481F390 DCT COPUR DCT MIBNO/M082F390 DCT MAXAR DCT 6230N05000W 6230N04000W 61N030W 59N020W DCT AGORI/N0469F390 DCT OSBOX DCT MIMKU DCT KELLY L10 WAL UY53 NUGRA NUGRA2H |
| Aircraft | B772/H-SDE1E3FGHIJ3J5J6M1M2P2RWXYZ/LB1D1 |
Departure
| Time | 2026-04-22 08:44 |
|---|---|
| Airport | Los Angeles International Airport (KLAX) |
Arrival
| Time | N/A |
|---|---|
| Airport | London Heathrow Airport (EGLL) |
| Time | Latitude | Longitude | Altitude | Speed | Heading |
|---|---|---|---|---|---|
| 2026-04-22 07:32 | 33.94102 | -118.39888 | 97 ft | 0 kts | 307° |
| 2026-04-22 08:32 | 33.94093 | -118.39874 | 99 ft | 4 kts | 313° |
| 2026-04-22 08:32 | 33.94077 | -118.39849 | 98 ft | 3 kts | 289° |
| 2026-04-22 08:32 | 33.94070 | -118.39825 | 95 ft | 4 kts | 291° |
| 2026-04-22 08:33 | 33.94061 | -118.39795 | 96 ft | 4 kts | 279° |
| 2026-04-22 08:33 | 33.94059 | -118.39782 | 97 ft | 0 kts | 269° |
| 2026-04-22 08:37 | 33.94059 | -118.39786 | 97 ft | 1 kts | 269° |
| 2026-04-22 08:37 | 33.94055 | -118.39808 | 98 ft | 3 kts | 244° |
| 2026-04-22 08:37 | 33.94032 | -118.39821 | 98 ft | 5 kts | 190° |
| 2026-04-22 08:37 | 33.93997 | -118.39806 | 99 ft | 6 kts | 140° |
| 2026-04-22 08:38 | 33.93986 | -118.39748 | 99 ft | 9 kts | 82° |
| 2026-04-22 08:38 | 33.93996 | -118.39662 | 98 ft | 12 kts | 82° |
| 2026-04-22 08:38 | 33.94007 | -118.39550 | 98 ft | 15 kts | 83° |
| 2026-04-22 08:38 | 33.94021 | -118.39415 | 97 ft | 17 kts | 83° |
| 2026-04-22 08:39 | 33.94036 | -118.39272 | 100 ft | 17 kts | 83° |
| 2026-04-22 08:39 | 33.94050 | -118.39129 | 99 ft | 17 kts | 83° |
| 2026-04-22 08:39 | 33.94058 | -118.38985 | 97 ft | 17 kts | 86° |
| 2026-04-22 08:39 | 33.94071 | -118.38842 | 99 ft | 17 kts | 83° |
| 2026-04-22 08:40 | 33.94086 | -118.38699 | 101 ft | 17 kts | 83° |
| 2026-04-22 08:40 | 33.94100 | -118.38557 | 99 ft | 17 kts | 83° |
| 2026-04-22 08:40 | 33.94112 | -118.38438 | 101 ft | 12 kts | 83° |
| 2026-04-22 08:40 | 33.94117 | -118.38367 | 99 ft | 7 kts | 100° |
| 2026-04-22 08:41 | 33.94080 | -118.38332 | 100 ft | 7 kts | 153° |
| 2026-04-22 08:41 | 33.94054 | -118.38289 | 100 ft | 7 kts | 95° |
| 2026-04-22 08:41 | 33.94059 | -118.38232 | 99 ft | 7 kts | 83° |
| 2026-04-22 08:41 | 33.94065 | -118.38175 | 98 ft | 7 kts | 83° |
| 2026-04-22 08:42 | 33.94071 | -118.38117 | 99 ft | 7 kts | 83° |
| 2026-04-22 08:42 | 33.94077 | -118.38060 | 97 ft | 7 kts | 83° |
| 2026-04-22 08:42 | 33.94059 | -118.38011 | 99 ft | 7 kts | 143° |
| 2026-04-22 08:42 | 33.94015 | -118.37998 | 98 ft | 5 kts | 177° |
| 2026-04-22 08:43 | 33.93990 | -118.38016 | 101 ft | 4 kts | 237° |
| 2026-04-22 08:43 | 33.93982 | -118.38051 | 99 ft | 4 kts | 261° |
| 2026-04-22 08:43 | 33.93978 | -118.38088 | 98 ft | 4 kts | 263° |
| 2026-04-22 08:43 | 33.93966 | -118.38200 | 103 ft | 33 kts | 263° |
| 2026-04-22 08:44 | 33.93908 | -118.38767 | 101 ft | 103 kts | 263° |
| 2026-04-22 08:44 | 33.93795 | -118.39874 | 105 ft | 162 kts | 263° |
| 2026-04-22 08:44 | 33.93651 | -118.41348 | 503 ft | 181 kts | 263° |
| 2026-04-22 08:44 | 33.93494 | -118.42803 | 1443 ft | 174 kts | 264° |
| 2026-04-22 08:45 | 33.93338 | -118.44346 | 1759 ft | 188 kts | 264° |
| 2026-04-22 08:45 | 33.93072 | -118.45917 | 2017 ft | 199 kts | 244° |
| 2026-04-22 08:45 | 33.92216 | -118.47292 | 2144 ft | 212 kts | 233° |
| 2026-04-22 08:45 | 33.91274 | -118.48714 | 2330 ft | 230 kts | 234° |
| 2026-04-22 08:46 | 33.90240 | -118.50265 | 2671 ft | 241 kts | 232° |
| 2026-04-22 08:46 | 33.89138 | -118.51839 | 3173 ft | 248 kts | 232° |
| 2026-04-22 08:46 | 33.88016 | -118.53434 | 3749 ft | 252 kts | 232° |
| 2026-04-22 08:46 | 33.86845 | -118.55009 | 4253 ft | 254 kts | 222° |
| 2026-04-22 08:47 | 33.85228 | -118.55937 | 4685 ft | 266 kts | 190° |
| 2026-04-22 08:47 | 33.83382 | -118.55828 | 5228 ft | 268 kts | 170° |
| 2026-04-22 08:47 | 33.81537 | -118.55319 | 5651 ft | 275 kts | 170° |
| 2026-04-22 08:47 | 33.79666 | -118.54796 | 6234 ft | 277 kts | 170° |
| 2026-04-22 08:48 | 33.77783 | -118.54273 | 6773 ft | 279 kts | 171° |
| 2026-04-22 08:48 | 33.75876 | -118.53751 | 7281 ft | 282 kts | 171° |
| 2026-04-22 08:48 | 33.73956 | -118.53230 | 7790 ft | 283 kts | 172° |
| 2026-04-22 08:48 | 33.72028 | -118.52707 | 8258 ft | 285 kts | 170° |
| 2026-04-22 08:49 | 33.70196 | -118.51718 | 8573 ft | 300 kts | 143° |
| 2026-04-22 08:49 | 33.68948 | -118.49683 | 8988 ft | 308 kts | 114° |
| 2026-04-22 08:49 | 33.68219 | -118.47246 | 9351 ft | 313 kts | 110° |
| 2026-04-22 08:49 | 33.67510 | -118.44745 | 9807 ft | 317 kts | 111° |
| 2026-04-22 08:50 | 33.66789 | -118.42229 | 10220 ft | 323 kts | 111° |
| 2026-04-22 08:50 | 33.66025 | -118.39615 | 10333 ft | 340 kts | 111° |
| 2026-04-22 08:50 | 33.65211 | -118.36864 | 10478 ft | 358 kts | 111° |
| 2026-04-22 08:50 | 33.64435 | -118.33969 | 10581 ft | 371 kts | 103° |
| 2026-04-22 08:51 | 33.64324 | -118.30825 | 10832 ft | 382 kts | 88° |
| 2026-04-22 08:51 | 33.64437 | -118.27609 | 11314 ft | 389 kts | 89° |
| 2026-04-22 08:51 | 33.64472 | -118.24387 | 11963 ft | 392 kts | 91° |
| 2026-04-22 08:51 | 33.64550 | -118.21114 | 12558 ft | 394 kts | 82° |
| 2026-04-22 08:52 | 33.65439 | -118.17988 | 13030 ft | 401 kts | 57° |
| 2026-04-22 08:52 | 33.67193 | -118.15401 | 13701 ft | 400 kts | 37° |
| 2026-04-22 08:52 | 33.69385 | -118.13372 | 14282 ft | 400 kts | 32° |
| 2026-04-22 08:52 | 33.71655 | -118.11390 | 14899 ft | 405 kts | 31° |
| 2026-04-22 08:53 | 33.73950 | -118.09393 | 15608 ft | 408 kts | 32° |
| 2026-04-22 08:53 | 33.76247 | -118.07378 | 16292 ft | 411 kts | 32° |
| 2026-04-22 08:53 | 33.78561 | -118.05327 | 16939 ft | 416 kts | 32° |
| 2026-04-22 08:53 | 33.80902 | -118.03236 | 17577 ft | 420 kts | 32° |
| 2026-04-22 08:54 | 33.83258 | -118.01121 | 18298 ft | 424 kts | 32° |
| 2026-04-22 08:54 | 33.85634 | -117.98981 | 18907 ft | 428 kts | 32° |
| 2026-04-22 08:54 | 33.87996 | -117.96854 | 19497 ft | 433 kts | 32° |
| 2026-04-22 08:54 | 33.90462 | -117.94634 | 20019 ft | 438 kts | 31° |
| 2026-04-22 08:55 | 33.92908 | -117.92414 | 20633 ft | 442 kts | 31° |
| 2026-04-22 08:55 | 33.95365 | -117.90166 | 21276 ft | 445 kts | 31° |
| 2026-04-22 08:55 | 33.97803 | -117.87933 | 21875 ft | 448 kts | 31° |
| 2026-04-22 08:55 | 34.00291 | -117.85656 | 22458 ft | 452 kts | 31° |
| 2026-04-22 08:56 | 34.02809 | -117.83350 | 23041 ft | 456 kts | 30° |
| 2026-04-22 08:56 | 34.05352 | -117.81020 | 23622 ft | 460 kts | 30° |
| 2026-04-22 08:56 | 34.07912 | -117.78674 | 24127 ft | 464 kts | 31° |
| 2026-04-22 08:56 | 34.10354 | -117.76081 | 24588 ft | 475 kts | 41° |
| 2026-04-22 08:57 | 34.12496 | -117.73006 | 25035 ft | 482 kts | 46° |
| 2026-04-22 08:57 | 34.14559 | -117.69782 | 25486 ft | 487 kts | 47° |
| 2026-04-22 08:57 | 34.16623 | -117.66529 | 25955 ft | 489 kts | 46° |
| 2026-04-22 08:57 | 34.18724 | -117.63277 | 26431 ft | 491 kts | 46° |
| 2026-04-22 08:58 | 34.20864 | -117.60039 | 26813 ft | 495 kts | 45° |
| 2026-04-22 08:58 | 34.23045 | -117.56790 | 27214 ft | 498 kts | 44° |
| 2026-04-22 08:58 | 34.25241 | -117.53535 | 27591 ft | 501 kts | 44° |
| 2026-04-22 08:58 | 34.27451 | -117.50251 | 27988 ft | 504 kts | 44° |
| 2026-04-22 08:59 | 34.29665 | -117.46948 | 28351 ft | 507 kts | 44° |
| 2026-04-22 08:59 | 34.31139 | -117.44749 | 28643 ft | 508 kts | 45° |
| 2026-04-22 08:59 | 34.33366 | -117.41421 | 29087 ft | 509 kts | 45° |
| 2026-04-22 08:59 | 34.35596 | -117.38086 | 29457 ft | 511 kts | 44° |
| 2026-04-22 09:00 | 34.37840 | -117.34728 | 29762 ft | 514 kts | 44° |
| 2026-04-22 09:00 | 34.40096 | -117.31348 | 30068 ft | 518 kts | 44° |
| 2026-04-22 09:00 | 34.42362 | -117.27950 | 30343 ft | 520 kts | 44° |
| 2026-04-22 09:00 | 34.44638 | -117.24532 | 30599 ft | 522 kts | 44° |
| 2026-04-22 09:01 | 34.46926 | -117.21092 | 30890 ft | 525 kts | 44° |
| 2026-04-22 09:01 | 34.49224 | -117.17633 | 31073 ft | 528 kts | 44° |
| 2026-04-22 09:01 | 34.51530 | -117.14160 | 31331 ft | 530 kts | 45° |
| 2026-04-22 09:01 | 34.53842 | -117.10674 | 31563 ft | 532 kts | 45° |
| 2026-04-22 09:02 | 34.56181 | -117.07187 | 31773 ft | 534 kts | 44° |
| 2026-04-22 09:02 | 34.58534 | -117.03754 | 31940 ft | 537 kts | 43° |
| 2026-04-22 09:02 | 34.60935 | -117.00275 | 32110 ft | 538 kts | 43° |
| 2026-04-22 09:02 | 34.63296 | -116.96861 | 32279 ft | 539 kts | 43° |
| 2026-04-22 09:03 | 34.65709 | -116.93366 | 32519 ft | 540 kts | 43° |
| 2026-04-22 09:03 | 34.68123 | -116.89855 | 32816 ft | 540 kts | 43° |
| 2026-04-22 09:03 | 34.70525 | -116.86343 | 33126 ft | 540 kts | 44° |
| 2026-04-22 09:03 | 34.72915 | -116.82841 | 33516 ft | 537 kts | 43° |
| 2026-04-22 09:04 | 34.75294 | -116.79349 | 33836 ft | 536 kts | 43° |
| 2026-04-22 09:04 | 34.77679 | -116.75847 | 34089 ft | 537 kts | 43° |
| 2026-04-22 09:04 | 34.80065 | -116.72344 | 34282 ft | 538 kts | 43° |
| 2026-04-22 09:04 | 34.82422 | -116.68881 | 34451 ft | 539 kts | 43° |
| 2026-04-22 09:05 | 34.84817 | -116.65357 | 34666 ft | 539 kts | 43° |
| 2026-04-22 09:05 | 34.87226 | -116.61867 | 34883 ft | 537 kts | 41° |
| 2026-04-22 09:05 | 34.89711 | -116.58476 | 35028 ft | 537 kts | 40° |
| 2026-04-22 09:06 | 34.94823 | -116.51779 | 35069 ft | 538 kts | 40° |
| 2026-04-22 09:06 | 34.99868 | -116.45144 | 35050 ft | 533 kts | 40° |
| 2026-04-22 09:07 | 35.04888 | -116.38440 | 35045 ft | 534 kts | 40° |
| 2026-04-22 09:07 | 35.09874 | -116.31731 | 35036 ft | 535 kts | 40° |
| 2026-04-22 09:08 | 35.14852 | -116.25019 | 35069 ft | 534 kts | 40° |
| 2026-04-22 09:08 | 35.19847 | -116.18269 | 35042 ft | 535 kts | 40° |
| 2026-04-22 09:09 | 35.24864 | -116.11484 | 35083 ft | 538 kts | 40° |
| 2026-04-22 09:09 | 35.29884 | -116.04687 | 35073 ft | 541 kts | 41° |
| 2026-04-22 09:10 | 35.34869 | -115.97918 | 35074 ft | 543 kts | 41° |
| 2026-04-22 09:10 | 35.39923 | -115.91038 | 35041 ft | 541 kts | 41° |
| 2026-04-22 09:11 | 35.44927 | -115.84210 | 35063 ft | 538 kts | 41° |
| 2026-04-22 09:11 | 35.49927 | -115.77378 | 35043 ft | 535 kts | 41° |
| 2026-04-22 09:12 | 35.54887 | -115.70589 | 35063 ft | 533 kts | 41° |
| 2026-04-22 09:12 | 35.59845 | -115.63789 | 35041 ft | 534 kts | 42° |
| 2026-04-22 09:13 | 35.64779 | -115.57010 | 35047 ft | 534 kts | 43° |
| 2026-04-22 09:13 | 35.69715 | -115.50209 | 35052 ft | 534 kts | 43° |
| 2026-04-22 09:14 | 35.74680 | -115.43355 | 35044 ft | 534 kts | 43° |
| 2026-04-22 09:14 | 35.79617 | -115.36517 | 35045 ft | 534 kts | 43° |
| 2026-04-22 09:15 | 35.84565 | -115.29650 | 35076 ft | 535 kts | 43° |
| 2026-04-22 09:15 | 35.89518 | -115.22767 | 35064 ft | 537 kts | 43° |
| 2026-04-22 09:16 | 35.94467 | -115.15873 | 35042 ft | 538 kts | 43° |
| 2026-04-22 09:16 | 35.99406 | -115.08975 | 35038 ft | 538 kts | 43° |
| 2026-04-22 09:17 | 36.04378 | -115.02018 | 35012 ft | 538 kts | 43° |
| 2026-04-22 09:17 | 36.09242 | -114.95199 | 34951 ft | 540 kts | 43° |
| 2026-04-22 09:18 | 36.14206 | -114.88225 | 34939 ft | 541 kts | 43° |
| 2026-04-22 09:18 | 36.19378 | -114.81580 | 34920 ft | 529 kts | 28° |
| 2026-04-22 09:18 | 36.22476 | -114.79330 | 34973 ft | 515 kts | 20° |
| 2026-04-22 09:19 | 36.25696 | -114.77317 | 34928 ft | 519 kts | 19° |
| 2026-04-22 09:19 | 36.32232 | -114.73268 | 34908 ft | 525 kts | 20° |
| 2026-04-22 09:20 | 36.38712 | -114.69057 | 34891 ft | 528 kts | 21° |
| 2026-04-22 09:20 | 36.45197 | -114.64727 | 34867 ft | 528 kts | 21° |
| 2026-04-22 09:21 | 36.51609 | -114.60436 | 34863 ft | 527 kts | 21° |
| 2026-04-22 09:21 | 36.58096 | -114.56105 | 34860 ft | 527 kts | 21° |
| 2026-04-22 09:22 | 36.64555 | -114.51787 | 34853 ft | 526 kts | 21° |
| 2026-04-22 09:22 | 36.71012 | -114.47449 | 34852 ft | 528 kts | 22° |
| 2026-04-22 09:23 | 36.77271 | -114.42713 | 34858 ft | 532 kts | 26° |
| 2026-04-22 09:23 | 36.83541 | -114.37730 | 34838 ft | 533 kts | 27° |
| 2026-04-22 09:24 | 36.89780 | -114.32775 | 34857 ft | 534 kts | 27° |
| 2026-04-22 09:24 | 36.96084 | -114.27797 | 34873 ft | 532 kts | 27° |
| 2026-04-22 09:25 | 37.02325 | -114.22869 | 34887 ft | 534 kts | 27° |
| 2026-04-22 09:25 | 37.08644 | -114.17881 | 34842 ft | 536 kts | 27° |
| 2026-04-22 09:26 | 37.14958 | -114.12884 | 34858 ft | 537 kts | 27° |
| 2026-04-22 09:26 | 37.21251 | -114.07896 | 34857 ft | 537 kts | 27° |
| 2026-04-22 09:27 | 37.27555 | -114.02892 | 34876 ft | 536 kts | 28° |
| 2026-04-22 09:27 | 37.33792 | -113.97913 | 34875 ft | 535 kts | 29° |
| 2026-04-22 09:28 | 37.40079 | -113.92891 | 34860 ft | 535 kts | 29° |
| 2026-04-22 09:28 | 37.46322 | -113.87900 | 34860 ft | 534 kts | 29° |
| 2026-04-22 09:29 | 37.52641 | -113.82838 | 34868 ft | 534 kts | 29° |
| 2026-04-22 09:29 | 37.58872 | -113.77832 | 34862 ft | 534 kts | 30° |
| 2026-04-22 09:30 | 37.65142 | -113.72793 | 34820 ft | 534 kts | 30° |
| 2026-04-22 09:30 | 37.71390 | -113.67754 | 34831 ft | 533 kts | 30° |
| 2026-04-22 09:31 | 37.77639 | -113.62700 | 34842 ft | 532 kts | 30° |
| 2026-04-22 09:31 | 37.83883 | -113.57645 | 34834 ft | 533 kts | 31° |
| 2026-04-22 09:32 | 37.90126 | -113.52582 | 34819 ft | 533 kts | 31° |
| 2026-04-22 09:32 | 37.96118 | -113.47025 | 34806 ft | 535 kts | 40° |
| 2026-04-22 09:33 | 38.01643 | -113.40693 | 34801 ft | 535 kts | 42° |
| 2026-04-22 09:33 | 38.07093 | -113.34377 | 34803 ft | 534 kts | 41° |
| 2026-04-22 09:34 | 38.12615 | -113.28057 | 34805 ft | 534 kts | 41° |
| 2026-04-22 09:34 | 38.18142 | -113.21762 | 34830 ft | 533 kts | 41° |
| 2026-04-22 09:35 | 38.26423 | -113.12297 | 34883 ft | 533 kts | 41° |
| 2026-04-22 09:35 | 38.31941 | -113.05968 | 34925 ft | 533 kts | 42° |
| 2026-04-22 09:36 | 38.37531 | -112.99895 | 34923 ft | 532 kts | 34° |
| 2026-04-22 09:36 | 38.43610 | -112.94713 | 34942 ft | 532 kts | 32° |
| 2026-04-22 09:37 | 38.49829 | -112.89586 | 34913 ft | 533 kts | 32° |
| 2026-04-22 09:37 | 38.56037 | -112.84407 | 34885 ft | 533 kts | 32° |
| 2026-04-22 09:38 | 38.62227 | -112.79175 | 34845 ft | 533 kts | 33° |
| 2026-04-22 09:38 | 38.68397 | -112.73931 | 34774 ft | 531 kts | 33° |
| 2026-04-22 09:39 | 38.74544 | -112.68692 | 34776 ft | 530 kts | 33° |
| 2026-04-22 09:39 | 38.80683 | -112.63455 | 34780 ft | 529 kts | 33° |
| 2026-04-22 09:40 | 38.86817 | -112.58214 | 34781 ft | 529 kts | 33° |
| 2026-04-22 09:40 | 38.92914 | -112.52996 | 34783 ft | 531 kts | 34° |
| 2026-04-22 09:41 | 38.99077 | -112.47708 | 34918 ft | 533 kts | 34° |
| 2026-04-22 09:41 | 39.05244 | -112.42410 | 34899 ft | 534 kts | 34° |
| 2026-04-22 09:42 | 39.11416 | -112.37088 | 34887 ft | 534 kts | 34° |
| 2026-04-22 09:42 | 39.17605 | -112.31741 | 34866 ft | 534 kts | 34° |
| 2026-04-22 09:43 | 39.23761 | -112.26413 | 34823 ft | 535 kts | 34° |
| 2026-04-22 09:43 | 39.28930 | -112.21932 | 34787 ft | 535 kts | 34° |
| 2026-04-22 09:44 | 39.35092 | -112.16579 | 34776 ft | 534 kts | 34° |
| 2026-04-22 09:44 | 39.41240 | -112.11225 | 34783 ft | 533 kts | 34° |
| 2026-04-22 09:45 | 39.47404 | -112.05846 | 34784 ft | 534 kts | 34° |
| 2026-04-22 09:45 | 39.53533 | -112.00486 | 34786 ft | 535 kts | 34° |
| 2026-04-22 09:46 | 39.59644 | -111.95132 | 34789 ft | 536 kts | 34° |
| 2026-04-22 09:46 | 39.66127 | -111.89438 | 34799 ft | 537 kts | 35° |
| 2026-04-22 09:47 | 39.72316 | -111.83988 | 34796 ft | 537 kts | 35° |
| 2026-04-22 09:47 | 39.78502 | -111.78530 | 34751 ft | 537 kts | 34° |
| 2026-04-22 09:48 | 39.84680 | -111.73073 | 34767 ft | 537 kts | 34° |
| 2026-04-22 09:48 | 39.90850 | -111.67608 | 34814 ft | 536 kts | 34° |
| 2026-04-22 09:49 | 39.97030 | -111.62110 | 34795 ft | 540 kts | 35° |
| 2026-04-22 09:49 | 40.03240 | -111.56583 | 34784 ft | 540 kts | 35° |
| 2026-04-22 09:50 | 40.09466 | -111.51033 | 34789 ft | 543 kts | 34° |
| 2026-04-22 09:50 | 40.15717 | -111.45461 | 34808 ft | 543 kts | 35° |
| 2026-04-22 09:51 | 40.21961 | -111.39850 | 34832 ft | 544 kts | 35° |
| 2026-04-22 09:51 | 40.28172 | -111.34260 | 34833 ft | 544 kts | 35° |
| 2026-04-22 09:52 | 40.34411 | -111.28643 | 34826 ft | 544 kts | 36° |
| 2026-04-22 09:52 | 40.40644 | -111.23022 | 34834 ft | 543 kts | 35° |
| 2026-04-22 09:53 | 40.46857 | -111.17405 | 34826 ft | 541 kts | 35° |
| 2026-04-22 09:53 | 40.53052 | -111.11791 | 34794 ft | 539 kts | 35° |
| 2026-04-22 09:54 | 40.59197 | -111.06205 | 34818 ft | 540 kts | 35° |
| 2026-04-22 09:54 | 40.65428 | -111.00529 | 34801 ft | 541 kts | 35° |
| 2026-04-22 09:55 | 40.71514 | -110.94976 | 34805 ft | 542 kts | 36° |
| 2026-04-22 09:55 | 40.77757 | -110.89266 | 34786 ft | 542 kts | 36° |
| 2026-04-22 09:56 | 40.83916 | -110.83624 | 34799 ft | 542 kts | 36° |
| 2026-04-22 09:56 | 40.90097 | -110.77941 | 34770 ft | 539 kts | 36° |
| 2026-04-22 09:57 | 40.96222 | -110.72297 | 34761 ft | 534 kts | 36° |
| 2026-04-22 09:57 | 41.02298 | -110.66686 | 34748 ft | 531 kts | 36° |
| 2026-04-22 09:58 | 41.08348 | -110.61086 | 34774 ft | 530 kts | 36° |
| 2026-04-22 09:58 | 41.14395 | -110.55477 | 34821 ft | 531 kts | 36° |
| 2026-04-22 09:59 | 41.20450 | -110.49847 | 34864 ft | 531 kts | 37° |
| 2026-04-22 09:59 | 41.26509 | -110.44201 | 34899 ft | 530 kts | 37° |
| 2026-04-22 10:00 | 41.32494 | -110.38612 | 34920 ft | 528 kts | 37° |
| 2026-04-22 10:00 | 41.38492 | -110.32998 | 34940 ft | 526 kts | 37° |
| 2026-04-22 10:01 | 41.44502 | -110.27358 | 35056 ft | 531 kts | 37° |
| 2026-04-22 10:01 | 41.47519 | -110.24522 | 35263 ft | 531 kts | 37° |
| 2026-04-22 10:01 | 41.50541 | -110.21678 | 35380 ft | 529 kts | 37° |
| 2026-04-22 10:02 | 41.53547 | -110.18847 | 35652 ft | 528 kts | 37° |
| 2026-04-22 10:02 | 41.56547 | -110.16018 | 35883 ft | 527 kts | 37° |
| 2026-04-22 10:02 | 41.59543 | -110.13189 | 36072 ft | 528 kts | 37° |
| 2026-04-22 10:02 | 41.62544 | -110.10348 | 36227 ft | 529 kts | 37° |
| 2026-04-22 10:03 | 41.65557 | -110.07496 | 36404 ft | 530 kts | 37° |
| 2026-04-22 10:03 | 41.68557 | -110.04655 | 36620 ft | 530 kts | 37° |
| 2026-04-22 10:03 | 41.74528 | -109.98988 | 36692 ft | 531 kts | 37° |
| 2026-04-22 10:04 | 41.80538 | -109.93272 | 36690 ft | 527 kts | 37° |
| 2026-04-22 10:04 | 41.86476 | -109.87610 | 36692 ft | 526 kts | 37° |
| 2026-04-22 10:05 | 41.92429 | -109.81918 | 36703 ft | 526 kts | 37° |
| 2026-04-22 10:05 | 41.98397 | -109.76201 | 36690 ft | 526 kts | 37° |
| 2026-04-22 10:06 | 42.04349 | -109.70483 | 36702 ft | 527 kts | 37° |
| 2026-04-22 10:06 | 42.10324 | -109.64730 | 36695 ft | 528 kts | 37° |
| 2026-04-22 10:07 | 42.16297 | -109.58966 | 36699 ft | 528 kts | 37° |
| 2026-04-22 10:07 | 42.22265 | -109.53195 | 36692 ft | 527 kts | 37° |
| 2026-04-22 10:08 | 42.28218 | -109.47424 | 36694 ft | 526 kts | 37° |
| 2026-04-22 10:08 | 42.34161 | -109.41649 | 36697 ft | 526 kts | 38° |
| 2026-04-22 10:09 | 42.40105 | -109.35857 | 36696 ft | 527 kts | 38° |
| 2026-04-22 10:09 | 42.46051 | -109.30050 | 36694 ft | 527 kts | 38° |
| 2026-04-22 10:10 | 42.51993 | -109.24234 | 36693 ft | 527 kts | 38° |
| 2026-04-22 10:10 | 42.57900 | -109.18439 | 36691 ft | 527 kts | 38° |
| 2026-04-22 10:11 | 42.63823 | -109.12614 | 36681 ft | 524 kts | 38° |
| 2026-04-22 10:11 | 42.69678 | -109.06843 | 36657 ft | 515 kts | 38° |
| 2026-04-22 10:12 | 42.75478 | -109.01111 | 36647 ft | 515 kts | 38° |
| 2026-04-22 10:12 | 42.81209 | -108.95433 | 36617 ft | 515 kts | 38° |
| 2026-04-22 10:13 | 42.87019 | -108.89665 | 36610 ft | 519 kts | 38° |
| 2026-04-22 10:13 | 42.91919 | -108.84793 | 36620 ft | 526 kts | 38° |
| 2026-04-22 10:14 | 42.97854 | -108.78866 | 36604 ft | 530 kts | 38° |
| 2026-04-22 10:14 | 43.03803 | -108.72923 | 36694 ft | 527 kts | 38° |
| 2026-04-22 10:15 | 43.09695 | -108.67020 | 36731 ft | 523 kts | 39° |
| 2026-04-22 10:15 | 43.15561 | -108.61125 | 36741 ft | 521 kts | 39° |
| 2026-04-22 10:16 | 43.21369 | -108.55274 | 36744 ft | 521 kts | 39° |
| 2026-04-22 10:16 | 43.27219 | -108.49369 | 36716 ft | 522 kts | 39° |
| 2026-04-22 10:17 | 43.33075 | -108.43441 | 36685 ft | 523 kts | 39° |
| 2026-04-22 10:17 | 43.38937 | -108.37493 | 36638 ft | 524 kts | 39° |
| 2026-04-22 10:18 | 43.44814 | -108.31517 | 36647 ft | 526 kts | 39° |
| 2026-04-22 10:18 | 43.50740 | -108.25548 | 36626 ft | 528 kts | 38° |
| 2026-04-22 10:19 | 43.56701 | -108.19661 | 36608 ft | 525 kts | 37° |
| 2026-04-22 10:19 | 43.62629 | -108.13803 | 36683 ft | 522 kts | 38° |
| 2026-04-22 10:20 | 43.68510 | -108.07959 | 36679 ft | 520 kts | 38° |
| 2026-04-22 10:20 | 43.74379 | -108.02096 | 36664 ft | 519 kts | 38° |
| 2026-04-22 10:21 | 43.80127 | -107.96334 | 36680 ft | 520 kts | 38° |
| 2026-04-22 10:21 | 43.86263 | -107.90172 | 36683 ft | 520 kts | 38° |
| 2026-04-22 10:22 | 43.92149 | -107.84248 | 36707 ft | 520 kts | 38° |
| 2026-04-22 10:22 | 43.97974 | -107.78371 | 36605 ft | 521 kts | 38° |
| 2026-04-22 10:23 | 44.03839 | -107.72439 | 36602 ft | 522 kts | 38° |
| 2026-04-22 10:23 | 44.09716 | -107.66479 | 36557 ft | 522 kts | 38° |
| 2026-04-22 10:24 | 44.15576 | -107.60519 | 36597 ft | 521 kts | 38° |
| 2026-04-22 10:24 | 44.21426 | -107.54559 | 36617 ft | 520 kts | 38° |
| 2026-04-22 10:25 | 44.27271 | -107.48590 | 36631 ft | 520 kts | 38° |
| 2026-04-22 10:25 | 44.33106 | -107.42613 | 36587 ft | 520 kts | 38° |
| 2026-04-22 10:26 | 44.38873 | -107.36694 | 36619 ft | 508 kts | 38° |
| 2026-04-22 10:26 | 44.44556 | -107.30843 | 36647 ft | 507 kts | 38° |
| 2026-04-22 10:27 | 44.50246 | -107.24967 | 36658 ft | 509 kts | 38° |
| 2026-04-22 10:27 | 44.55958 | -107.19060 | 36657 ft | 510 kts | 38° |
| 2026-04-22 10:28 | 44.61681 | -107.13121 | 36653 ft | 513 kts | 37° |
| 2026-04-22 10:28 | 44.67402 | -107.07175 | 36677 ft | 515 kts | 37° |
| 2026-04-22 10:29 | 44.73172 | -107.01161 | 36687 ft | 518 kts | 38° |
| 2026-04-22 10:29 | 44.78886 | -106.95190 | 36692 ft | 520 kts | 38° |
| 2026-04-22 10:30 | 44.84698 | -106.89101 | 36680 ft | 520 kts | 38° |
| 2026-04-22 10:30 | 44.90489 | -106.83019 | 36594 ft | 518 kts | 38° |
| 2026-04-22 10:31 | 44.96261 | -106.76941 | 36595 ft | 516 kts | 38° |
| 2026-04-22 10:31 | 45.01999 | -106.70883 | 36588 ft | 514 kts | 38° |
| 2026-04-22 10:32 | 45.07694 | -106.64854 | 36593 ft | 513 kts | 38° |
| 2026-04-22 10:32 | 45.13403 | -106.58796 | 36590 ft | 512 kts | 38° |
| 2026-04-22 10:33 | 45.19106 | -106.52728 | 36603 ft | 513 kts | 38° |
| 2026-04-22 10:33 | 45.24815 | -106.46638 | 36594 ft | 514 kts | 38° |
| 2026-04-22 10:34 | 45.30533 | -106.40522 | 36584 ft | 514 kts | 38° |
| 2026-04-22 10:34 | 45.36251 | -106.34390 | 36592 ft | 516 kts | 38° |
| 2026-04-22 10:35 | 45.41979 | -106.28231 | 36601 ft | 516 kts | 38° |
| 2026-04-22 10:35 | 45.47308 | -106.21490 | 36589 ft | 514 kts | 46° |
| 2026-04-22 10:36 | 45.52378 | -106.14298 | 36579 ft | 515 kts | 46° |
| 2026-04-22 10:36 | 45.57449 | -106.07066 | 36582 ft | 516 kts | 46° |
| 2026-04-22 10:37 | 45.65063 | -105.96317 | 36590 ft | 518 kts | 46° |
| 2026-04-22 10:38 | 45.70196 | -105.89077 | 36582 ft | 518 kts | 46° |
| 2026-04-22 10:38 | 45.75328 | -105.81816 | 36580 ft | 518 kts | 45° |
| 2026-04-22 10:39 | 45.80450 | -105.74545 | 36592 ft | 519 kts | 46° |
| 2026-04-22 10:39 | 45.85576 | -105.67246 | 36591 ft | 519 kts | 46° |
| 2026-04-22 10:40 | 45.90695 | -105.59938 | 36607 ft | 519 kts | 46° |
| 2026-04-22 10:40 | 45.95818 | -105.52604 | 36590 ft | 520 kts | 46° |
| 2026-04-22 10:41 | 46.00928 | -105.45268 | 36596 ft | 519 kts | 46° |
| 2026-04-22 10:41 | 46.06038 | -105.37912 | 36606 ft | 519 kts | 46° |
| 2026-04-22 10:42 | 46.10285 | -105.31783 | 36609 ft | 519 kts | 46° |
| 2026-04-22 10:42 | 46.16206 | -105.23213 | 36623 ft | 519 kts | 45° |
| 2026-04-22 10:43 | 46.21300 | -105.15819 | 36624 ft | 519 kts | 45° |
| 2026-04-22 10:43 | 46.25558 | -105.09623 | 36617 ft | 518 kts | 45° |
| 2026-04-22 10:44 | 46.30603 | -105.02262 | 36633 ft | 518 kts | 46° |
| 2026-04-22 10:44 | 46.35614 | -104.94930 | 36617 ft | 518 kts | 45° |
| 2026-04-22 10:45 | 46.40672 | -104.87508 | 36637 ft | 517 kts | 46° |
| 2026-04-22 10:45 | 46.45715 | -104.80088 | 36641 ft | 516 kts | 45° |
| 2026-04-22 10:46 | 46.50750 | -104.72658 | 36646 ft | 516 kts | 45° |
| 2026-04-22 10:46 | 46.55778 | -104.65218 | 36647 ft | 515 kts | 45° |
| 2026-04-22 10:47 | 46.60838 | -104.57830 | 36653 ft | 515 kts | 42° |
| 2026-04-22 10:47 | 46.66216 | -104.50964 | 36671 ft | 514 kts | 40° |
| 2026-04-22 10:48 | 46.71615 | -104.44227 | 36673 ft | 515 kts | 40° |
| 2026-04-22 10:48 | 46.77044 | -104.37390 | 36676 ft | 515 kts | 40° |
| 2026-04-22 10:49 | 46.82447 | -104.30513 | 36684 ft | 515 kts | 40° |
| 2026-04-22 10:49 | 46.87844 | -104.23612 | 36683 ft | 515 kts | 40° |
| 2026-04-22 10:50 | 46.93235 | -104.16699 | 36713 ft | 515 kts | 40° |
| 2026-04-22 10:50 | 46.98624 | -104.09773 | 36685 ft | 515 kts | 40° |
| 2026-04-22 10:51 | 47.03996 | -104.02850 | 36709 ft | 515 kts | 40° |
| 2026-04-22 10:51 | 47.09286 | -103.96016 | 36710 ft | 515 kts | 40° |
| 2026-04-22 10:52 | 47.14654 | -103.89062 | 36699 ft | 515 kts | 40° |
| 2026-04-22 10:52 | 47.20015 | -103.82096 | 36723 ft | 515 kts | 40° |
| 2026-04-22 10:53 | 47.25376 | -103.75109 | 36730 ft | 514 kts | 40° |
| 2026-04-22 10:53 | 47.30734 | -103.68107 | 36729 ft | 514 kts | 40° |
| 2026-04-22 10:54 | 47.36050 | -103.61142 | 36748 ft | 514 kts | 40° |
| 2026-04-22 10:54 | 47.41399 | -103.54114 | 36753 ft | 514 kts | 40° |
| 2026-04-22 10:55 | 47.46740 | -103.47075 | 36751 ft | 515 kts | 40° |
| 2026-04-22 10:55 | 47.52085 | -103.40010 | 36751 ft | 515 kts | 39° |
| 2026-04-22 10:56 | 47.57424 | -103.32934 | 36755 ft | 515 kts | 40° |
| 2026-04-22 10:56 | 47.62723 | -103.25891 | 36755 ft | 515 kts | 40° |
| 2026-04-22 10:57 | 47.68058 | -103.18778 | 36784 ft | 515 kts | 40° |
| 2026-04-22 10:57 | 47.73372 | -103.11647 | 36751 ft | 515 kts | 41° |
| 2026-04-22 10:58 | 47.78355 | -103.03974 | 36763 ft | 516 kts | 45° |
| 2026-04-22 10:58 | 47.83119 | -102.96262 | 36757 ft | 516 kts | 45° |
| 2026-04-22 10:59 | 47.87977 | -102.88391 | 36769 ft | 515 kts | 45° |
| 2026-04-22 10:59 | 47.92845 | -102.80543 | 36766 ft | 515 kts | 45° |
| 2026-04-22 11:00 | 47.97726 | -102.72681 | 36772 ft | 517 kts | 45° |
| 2026-04-22 11:00 | 48.02598 | -102.64810 | 36772 ft | 519 kts | 45° |
| 2026-04-22 11:01 | 48.07488 | -102.56884 | 36773 ft | 520 kts | 45° |
| 2026-04-22 11:01 | 48.12370 | -102.48943 | 36761 ft | 520 kts | 45° |
| 2026-04-22 11:02 | 48.17262 | -102.40960 | 36764 ft | 520 kts | 45° |
| 2026-04-22 11:02 | 48.22157 | -102.32950 | 36765 ft | 520 kts | 45° |
| 2026-04-22 11:03 | 48.27026 | -102.24958 | 36766 ft | 520 kts | 45° |
| 2026-04-22 11:03 | 48.31913 | -102.16911 | 36764 ft | 519 kts | 45° |
| 2026-04-22 11:04 | 48.36761 | -102.08906 | 36780 ft | 519 kts | 45° |
| 2026-04-22 11:04 | 48.41599 | -102.00891 | 36780 ft | 517 kts | 45° |
| 2026-04-22 11:05 | 48.46325 | -101.93037 | 36814 ft | 516 kts | 45° |
| 2026-04-22 11:05 | 48.51142 | -101.85010 | 36806 ft | 516 kts | 45° |
| 2026-04-22 11:06 | 48.55944 | -101.76983 | 36803 ft | 516 kts | 45° |
| 2026-04-22 11:06 | 48.60766 | -101.68899 | 36819 ft | 515 kts | 45° |
| 2026-04-22 11:07 | 48.65547 | -101.60856 | 36812 ft | 514 kts | 45° |
| 2026-04-22 11:07 | 48.70308 | -101.52824 | 36814 ft | 514 kts | 45° |
| 2026-04-22 11:08 | 48.75063 | -101.44777 | 36815 ft | 514 kts | 45° |
| 2026-04-22 11:08 | 48.79846 | -101.36660 | 36838 ft | 513 kts | 44° |
| 2026-04-22 11:09 | 48.84579 | -101.28599 | 36812 ft | 513 kts | 44° |
| 2026-04-22 11:09 | 48.89333 | -101.20479 | 36815 ft | 513 kts | 45° |
| 2026-04-22 11:10 | 48.94069 | -101.12365 | 36820 ft | 513 kts | 45° |
| 2026-04-22 11:10 | 48.98787 | -101.04257 | 36820 ft | 513 kts | 44° |
| 2026-04-22 11:11 | 49.03443 | -100.96231 | 36829 ft | 513 kts | 44° |
| 2026-04-22 11:11 | 49.08170 | -100.88055 | 36822 ft | 513 kts | 44° |
| 2026-04-22 11:12 | 49.12881 | -100.79883 | 36812 ft | 512 kts | 44° |
| 2026-04-22 11:12 | 49.17577 | -100.71711 | 36816 ft | 512 kts | 45° |
| 2026-04-22 11:13 | 49.22248 | -100.63558 | 36828 ft | 512 kts | 44° |
| 2026-04-22 11:13 | 49.26931 | -100.55358 | 36843 ft | 512 kts | 44° |
| 2026-04-22 11:14 | 49.31623 | -100.47115 | 36826 ft | 512 kts | 44° |
| 2026-04-22 11:14 | 49.36308 | -100.38859 | 36827 ft | 512 kts | 44° |
| 2026-04-22 11:15 | 49.40962 | -100.30632 | 36837 ft | 512 kts | 44° |
| 2026-04-22 11:15 | 49.45617 | -100.22378 | 36834 ft | 512 kts | 44° |
| 2026-04-22 11:16 | 49.50295 | -100.14055 | 36833 ft | 512 kts | 44° |
| 2026-04-22 11:16 | 49.54928 | -100.05786 | 36850 ft | 513 kts | 44° |
| 2026-04-22 11:17 | 49.59542 | -99.97548 | 36834 ft | 513 kts | 43° |
| 2026-04-22 11:17 | 49.64542 | -99.89901 | 36847 ft | 508 kts | 37° |
| 2026-04-22 11:18 | 49.69722 | -99.82494 | 36831 ft | 507 kts | 37° |
| 2026-04-22 11:18 | 49.74881 | -99.75068 | 36827 ft | 507 kts | 37° |
| 2026-04-22 11:19 | 49.80025 | -99.67564 | 36843 ft | 508 kts | 38° |
| 2026-04-22 11:19 | 49.85169 | -99.60011 | 36832 ft | 508 kts | 38° |
| 2026-04-22 11:20 | 49.90266 | -99.52505 | 36847 ft | 508 kts | 37° |
| 2026-04-22 11:20 | 49.95396 | -99.44931 | 36839 ft | 507 kts | 38° |
| 2026-04-22 11:21 | 50.00479 | -99.37405 | 36826 ft | 507 kts | 38° |
| 2026-04-22 11:21 | 50.05565 | -99.29851 | 36851 ft | 506 kts | 38° |
| 2026-04-22 11:22 | 50.10657 | -99.22266 | 36826 ft | 506 kts | 38° |
| 2026-04-22 11:22 | 50.15743 | -99.14665 | 36845 ft | 506 kts | 37° |
| 2026-04-22 11:23 | 50.20795 | -99.07091 | 36833 ft | 506 kts | 37° |
| 2026-04-22 11:23 | 50.25768 | -98.99615 | 36843 ft | 505 kts | 38° |
| 2026-04-22 11:24 | 50.30505 | -98.91396 | 36853 ft | 511 kts | 45° |
| 2026-04-22 11:24 | 50.34892 | -98.82648 | 36849 ft | 513 kts | 46° |
| 2026-04-22 11:25 | 50.39264 | -98.73852 | 36848 ft | 513 kts | 46° |
| 2026-04-22 11:25 | 50.43671 | -98.65060 | 36849 ft | 512 kts | 46° |
| 2026-04-22 11:26 | 50.47350 | -98.57742 | 36856 ft | 512 kts | 46° |
| 2026-04-22 11:26 | 50.51761 | -98.48952 | 36852 ft | 513 kts | 46° |
| 2026-04-22 11:27 | 50.56165 | -98.40138 | 36850 ft | 513 kts | 46° |
| 2026-04-22 11:27 | 50.60560 | -98.31310 | 36856 ft | 513 kts | 45° |
| 2026-04-22 11:28 | 50.64948 | -98.22462 | 36849 ft | 512 kts | 46° |
| 2026-04-22 11:28 | 50.69343 | -98.13572 | 36856 ft | 511 kts | 46° |
| 2026-04-22 11:29 | 50.73693 | -98.04744 | 36861 ft | 511 kts | 46° |
| 2026-04-22 11:29 | 50.77992 | -97.95989 | 36874 ft | 511 kts | 45° |
| 2026-04-22 11:30 | 50.82343 | -97.87097 | 36870 ft | 510 kts | 45° |
| 2026-04-22 11:30 | 50.86668 | -97.78231 | 36864 ft | 510 kts | 45° |
| 2026-04-22 11:31 | 50.90976 | -97.69368 | 36872 ft | 509 kts | 45° |
| 2026-04-22 11:31 | 50.95287 | -97.60468 | 36868 ft | 509 kts | 46° |
| 2026-04-22 11:32 | 50.99600 | -97.51531 | 36872 ft | 509 kts | 45° |
| 2026-04-22 11:32 | 51.03904 | -97.42584 | 36874 ft | 508 kts | 45° |
| 2026-04-22 11:33 | 51.08168 | -97.33712 | 36876 ft | 507 kts | 45° |
| 2026-04-22 11:33 | 51.12600 | -97.24937 | 36899 ft | 506 kts | 43° |
| 2026-04-22 11:34 | 51.17048 | -97.16326 | 36885 ft | 506 kts | 43° |
| 2026-04-22 11:34 | 51.21531 | -97.07566 | 36891 ft | 507 kts | 43° |
| 2026-04-22 11:35 | 51.25904 | -96.98941 | 36898 ft | 506 kts | 43° |
| 2026-04-22 11:35 | 51.30313 | -96.90191 | 36894 ft | 505 kts | 43° |
| 2026-04-22 11:36 | 51.34706 | -96.81441 | 36897 ft | 505 kts | 43° |
| 2026-04-22 11:36 | 51.39089 | -96.72684 | 36923 ft | 505 kts | 43° |
| 2026-04-22 11:37 | 51.43495 | -96.63855 | 36906 ft | 505 kts | 43° |
| 2026-04-22 11:37 | 51.47871 | -96.55056 | 36905 ft | 504 kts | 43° |
| 2026-04-22 11:38 | 51.52239 | -96.46241 | 36916 ft | 504 kts | 43° |
| 2026-04-22 11:38 | 51.58769 | -96.33008 | 36923 ft | 504 kts | 43° |
| 2026-04-22 11:39 | 51.63099 | -96.24197 | 36938 ft | 504 kts | 43° |
| 2026-04-22 11:39 | 51.67445 | -96.15323 | 36926 ft | 505 kts | 43° |
| 2026-04-22 11:40 | 51.71782 | -96.06434 | 36943 ft | 504 kts | 43° |
| 2026-04-22 11:40 | 51.76067 | -95.97622 | 36950 ft | 503 kts | 43° |
| 2026-04-22 11:41 | 51.80377 | -95.88728 | 36935 ft | 503 kts | 43° |
| 2026-04-22 11:41 | 51.84678 | -95.79822 | 36955 ft | 504 kts | 43° |
| 2026-04-22 11:42 | 51.88961 | -95.70923 | 36952 ft | 503 kts | 43° |
| 2026-04-22 11:42 | 51.93262 | -95.61954 | 36962 ft | 503 kts | 43° |
| 2026-04-22 11:43 | 51.97551 | -95.52980 | 36959 ft | 503 kts | 43° |
| 2026-04-22 11:43 | 52.01831 | -95.43993 | 36961 ft | 504 kts | 43° |
| 2026-04-22 11:44 | 52.06110 | -95.34976 | 36986 ft | 504 kts | 43° |
| 2026-04-22 11:44 | 52.10378 | -95.25953 | 36976 ft | 504 kts | 43° |
| 2026-04-22 11:45 | 52.14646 | -95.16896 | 36975 ft | 505 kts | 43° |
| 2026-04-22 11:45 | 52.18920 | -95.07793 | 36991 ft | 505 kts | 43° |
| 2026-04-22 11:46 | 52.23124 | -94.98808 | 36987 ft | 505 kts | 43° |
| 2026-04-22 11:46 | 52.27385 | -94.89671 | 37002 ft | 506 kts | 43° |
| 2026-04-22 11:47 | 52.31614 | -94.80567 | 36994 ft | 506 kts | 43° |
| 2026-04-22 11:47 | 52.35859 | -94.71395 | 36987 ft | 506 kts | 43° |
| 2026-04-22 11:48 | 52.40104 | -94.62190 | 36995 ft | 505 kts | 43° |
| 2026-04-22 11:48 | 52.44334 | -94.52987 | 37027 ft | 506 kts | 43° |
| 2026-04-22 11:49 | 52.48566 | -94.43749 | 37001 ft | 507 kts | 43° |
| 2026-04-22 11:49 | 52.52792 | -94.34485 | 37009 ft | 507 kts | 43° |
| 2026-04-22 11:50 | 52.57014 | -94.25195 | 37010 ft | 507 kts | 43° |
| 2026-04-22 11:50 | 52.61229 | -94.15891 | 37019 ft | 507 kts | 43° |
| 2026-04-22 11:51 | 52.65387 | -94.06484 | 37017 ft | 512 kts | 47° |
| 2026-04-22 11:51 | 52.68796 | -93.96214 | 37032 ft | 522 kts | 54° |
| 2026-04-22 11:52 | 52.71967 | -93.85491 | 37039 ft | 524 kts | 55° |
| 2026-04-22 11:52 | 52.75165 | -93.74659 | 37042 ft | 525 kts | 54° |
| 2026-04-22 11:53 | 52.78395 | -93.63836 | 37037 ft | 525 kts | 54° |
| 2026-04-22 11:53 | 52.81631 | -93.53023 | 37040 ft | 525 kts | 54° |
| 2026-04-22 11:54 | 52.84867 | -93.42169 | 37036 ft | 526 kts | 54° |
| 2026-04-22 11:54 | 52.88088 | -93.31301 | 37030 ft | 526 kts | 54° |
| 2026-04-22 11:55 | 52.91295 | -93.20424 | 37036 ft | 525 kts | 54° |
| 2026-04-22 11:55 | 52.94495 | -93.09524 | 37039 ft | 525 kts | 54° |
| 2026-04-22 11:56 | 52.97618 | -92.98835 | 37090 ft | 526 kts | 54° |
| 2026-04-22 11:56 | 53.00802 | -92.87895 | 37059 ft | 527 kts | 54° |
| 2026-04-22 11:57 | 53.03977 | -92.76928 | 37071 ft | 527 kts | 54° |
| 2026-04-22 11:57 | 53.07148 | -92.65922 | 37077 ft | 527 kts | 54° |
| 2026-04-22 11:58 | 53.10303 | -92.54922 | 37080 ft | 527 kts | 55° |
| 2026-04-22 11:58 | 53.13454 | -92.43887 | 37094 ft | 527 kts | 54° |
| 2026-04-22 11:59 | 53.16566 | -92.32933 | 37093 ft | 526 kts | 55° |
| 2026-04-22 11:59 | 53.19683 | -92.21911 | 37103 ft | 526 kts | 55° |
| 2026-04-22 12:00 | 53.22811 | -92.10798 | 37102 ft | 525 kts | 55° |
| 2026-04-22 12:00 | 53.25872 | -91.99878 | 37139 ft | 526 kts | 55° |
| 2026-04-22 12:01 | 53.28950 | -91.88836 | 37116 ft | 524 kts | 55° |
| 2026-04-22 12:01 | 53.32011 | -91.77802 | 37116 ft | 523 kts | 55° |
| 2026-04-22 12:02 | 53.35044 | -91.66821 | 37124 ft | 522 kts | 55° |
| 2026-04-22 12:02 | 53.38095 | -91.55725 | 37131 ft | 522 kts | 56° |
| 2026-04-22 12:03 | 53.41112 | -91.44702 | 37137 ft | 522 kts | 56° |
| 2026-04-22 12:03 | 53.44134 | -91.33601 | 37112 ft | 522 kts | 56° |
| 2026-04-22 12:04 | 53.46505 | -91.24853 | 37130 ft | 521 kts | 56° |
| 2026-04-22 12:04 | 53.49501 | -91.13754 | 37150 ft | 521 kts | 56° |
| 2026-04-22 12:05 | 53.52484 | -91.02654 | 37190 ft | 521 kts | 56° |
| 2026-04-22 12:05 | 53.55403 | -90.91733 | 37154 ft | 521 kts | 56° |
| 2026-04-22 12:06 | 53.58360 | -90.80614 | 37154 ft | 520 kts | 57° |
| 2026-04-22 12:06 | 53.61306 | -90.69483 | 37158 ft | 520 kts | 57° |